sensor_id;sensor_type;location;lat;lon;timestamp;P1;durP1;ratioP1;P2;durP2;ratioP2
67065;SDS011;53978;43.846;25.952;2023-05-29T01:24:26;7.97;;;5.25;;
67065;SDS011;53978;43.846;25.952;2023-05-29T01:27:08;8.07;;;5.20;;
67065;SDS011;53978;43.846;25.952;2023-05-29T01:29:45;6.38;;;4.82;;
67065;SDS011;53978;43.846;25.952;2023-05-29T01:32:17;6.25;;;4.72;;
67065;SDS011;53978;43.846;25.952;2023-05-29T01:34:48;5.32;;;4.53;;
67065;SDS011;53978;43.846;25.952;2023-05-29T01:37:21;6.88;;;5.20;;
67065;SDS011;53978;43.846;25.952;2023-05-29T01:39:59;8.23;;;4.97;;
67065;SDS011;53978;43.846;25.952;2023-05-29T01:42:26;7.10;;;5.72;;
67065;SDS011;53978;43.846;25.952;2023-05-29T01:44:57;7.43;;;5.70;;
67065;SDS011;53978;43.846;25.952;2023-05-29T01:47:31;6.95;;;5.68;;
67065;SDS011;53978;43.846;25.952;2023-05-29T01:49:56;6.72;;;5.32;;
67065;SDS011;53978;43.846;25.952;2023-05-29T01:52:22;8.77;;;5.25;;
67065;SDS011;53978;43.846;25.952;2023-05-29T01:55:06;8.68;;;5.05;;
67065;SDS011;53978;43.846;25.952;2023-05-29T01:57:35;9.32;;;5.53;;
67065;SDS011;53978;43.846;25.952;2023-05-29T02:00:02;11.88;;;5.95;;
67065;SDS011;53978;43.846;25.952;2023-05-29T02:02:35;6.90;;;5.20;;
67065;SDS011;53978;43.846;25.952;2023-05-29T02:05:05;8.15;;;5.57;;
67065;SDS011;53978;43.846;25.952;2023-05-29T02:07:32;6.75;;;5.28;;
67065;SDS011;53978;43.846;25.952;2023-05-29T02:09:57;7.10;;;5.32;;
67065;SDS011;53978;43.846;25.952;2023-05-29T02:12:35;6.00;;;4.95;;
67065;SDS011;53978;43.846;25.952;2023-05-29T02:15:01;8.55;;;5.32;;
67065;SDS011;53978;43.846;25.952;2023-05-29T02:17:29;6.47;;;5.32;;
67065;SDS011;53978;43.846;25.952;2023-05-29T02:19:58;6.28;;;5.28;;
67065;SDS011;53978;43.846;25.952;2023-05-29T02:22:29;8.25;;;4.93;;
67065;SDS011;53978;43.846;25.952;2023-05-29T02:24:57;9.88;;;5.05;;
67065;SDS011;53978;43.846;25.952;2023-05-29T02:27:25;11.25;;;5.07;;
67065;SDS011;53978;43.846;25.952;2023-05-29T02:30:01;9.88;;;5.10;;
67065;SDS011;53978;43.846;25.952;2023-05-29T02:32:33;14.60;;;5.35;;
67065;SDS011;53978;43.846;25.952;2023-05-29T02:35:07;10.57;;;5.15;;
67065;SDS011;53978;43.846;25.952;2023-05-29T02:37:45;7.88;;;4.53;;
67065;SDS011;53978;43.846;25.952;2023-05-29T02:40:13;7.13;;;4.80;;
67065;SDS011;53978;43.846;25.952;2023-05-29T02:42:50;11.15;;;4.57;;
67065;SDS011;53978;43.846;25.952;2023-05-29T02:45:24;7.18;;;4.72;;
67065;SDS011;53978;43.846;25.952;2023-05-29T02:47:57;5.72;;;4.65;;
67065;SDS011;53978;43.846;25.952;2023-05-29T02:50:25;7.22;;;4.60;;
67065;SDS011;53978;43.846;25.952;2023-05-29T02:52:56;6.82;;;4.90;;
67065;SDS011;53978;43.846;25.952;2023-05-29T02:55:22;5.13;;;4.38;;
67065;SDS011;53978;43.846;25.952;2023-05-29T02:58:22;6.72;;;4.43;;
67065;SDS011;53978;43.846;25.952;2023-05-29T03:00:47;4.60;;;4.20;;
67065;SDS011;53978;43.846;25.952;2023-05-29T03:03:26;7.15;;;4.93;;
67065;SDS011;53978;43.846;25.952;2023-05-29T03:05:55;9.35;;;4.57;;
67065;SDS011;53978;43.846;25.952;2023-05-29T03:08:28;7.35;;;4.72;;
67065;SDS011;53978;43.846;25.952;2023-05-29T03:10:59;7.65;;;4.80;;
67065;SDS011;53978;43.846;25.952;2023-05-29T03:13:24;6.32;;;4.45;;
67065;SDS011;53978;43.846;25.952;2023-05-29T03:15:52;10.15;;;4.93;;
67065;SDS011;53978;43.846;25.952;2023-05-29T03:18:28;5.80;;;5.18;;
67065;SDS011;53978;43.846;25.952;2023-05-29T03:21:05;9.45;;;5.50;;
67065;SDS011;53978;43.846;25.952;2023-05-29T03:23:36;8.15;;;5.07;;
67065;SDS011;53978;43.846;25.952;2023-05-29T03:26:09;8.23;;;4.97;;
67065;SDS011;53978;43.846;25.952;2023-05-29T03:28:37;9.90;;;5.38;;
67065;SDS011;53978;43.846;25.952;2023-05-29T03:31:06;6.90;;;5.45;;
67065;SDS011;53978;43.846;25.952;2023-05-29T03:33:35;8.75;;;5.80;;
67065;SDS011;53978;43.846;25.952;2023-05-29T03:36:10;7.75;;;4.90;;
67065;SDS011;53978;43.846;25.952;2023-05-29T03:38:54;8.02;;;5.38;;
67065;SDS011;53978;43.846;25.952;2023-05-29T03:41:19;7.40;;;4.97;;
67065;SDS011;53978;43.846;25.952;2023-05-29T03:43:45;5.93;;;5.32;;
67065;SDS011;53978;43.846;25.952;2023-05-29T03:46:11;9.02;;;5.63;;
67065;SDS011;53978;43.846;25.952;2023-05-29T03:48:36;8.35;;;5.78;;
67065;SDS011;53978;43.846;25.952;2023-05-29T03:51:02;11.52;;;5.80;;
67065;SDS011;53978;43.846;25.952;2023-05-29T03:53:27;7.05;;;5.20;;
67065;SDS011;53978;43.846;25.952;2023-05-29T03:55:53;6.10;;;5.45;;
67065;SDS011;53978;43.846;25.952;2023-05-29T03:58:18;8.02;;;5.55;;
67065;SDS011;53978;43.846;25.952;2023-05-29T04:00:49;11.80;;;5.45;;
67065;SDS011;53978;43.846;25.952;2023-05-29T04:03:16;9.32;;;5.70;;
67065;SDS011;53978;43.846;25.952;2023-05-29T04:05:42;10.02;;;5.55;;
67065;SDS011;53978;43.846;25.952;2023-05-29T16:01:27;5.55;;;3.80;;
67065;SDS011;53978;43.846;25.952;2023-05-29T16:03:58;5.95;;;4.18;;
67065;SDS011;53978;43.846;25.952;2023-05-29T16:06:27;14.20;;;4.85;;
67065;SDS011;53978;43.846;25.952;2023-05-29T16:08:58;12.80;;;4.57;;
67065;SDS011;53978;43.846;25.952;2023-05-29T16:11:26;7.50;;;4.18;;
67065;SDS011;53978;43.846;25.952;2023-05-29T16:13:54;7.43;;;4.55;;
67065;SDS011;53978;43.846;25.952;2023-05-29T16:16:22;8.20;;;5.00;;
67065;SDS011;53978;43.846;25.952;2023-05-29T16:18:47;10.13;;;4.88;;
67065;SDS011;53978;43.846;25.952;2023-05-29T16:21:13;8.60;;;4.28;;
67065;SDS011;53978;43.846;25.952;2023-05-29T16:23:39;9.88;;;4.60;;
67065;SDS011;53978;43.846;25.952;2023-05-29T16:26:04;7.82;;;4.43;;
67065;SDS011;53978;43.846;25.952;2023-05-29T16:28:29;16.88;;;5.03;;
67065;SDS011;53978;43.846;25.952;2023-05-29T16:30:55;9.48;;;4.28;;
67065;SDS011;53978;43.846;25.952;2023-05-29T16:33:20;11.43;;;4.47;;
67065;SDS011;53978;43.846;25.952;2023-05-29T16:35:46;6.13;;;4.18;;
67065;SDS011;53978;43.846;25.952;2023-05-29T16:38:12;4.88;;;4.00;;
67065;SDS011;53978;43.846;25.952;2023-05-29T16:40:37;7.97;;;4.32;;
67065;SDS011;53978;43.846;25.952;2023-05-29T16:43:05;10.05;;;4.38;;
67065;SDS011;53978;43.846;25.952;2023-05-29T16:45:31;16.77;;;8.35;;
67065;SDS011;53978;43.846;25.952;2023-05-29T16:47:56;11.55;;;4.97;;
67065;SDS011;53978;43.846;25.952;2023-05-29T16:50:24;10.85;;;4.95;;
67065;SDS011;53978;43.846;25.952;2023-05-29T16:52:50;7.70;;;4.90;;
67065;SDS011;53978;43.846;25.952;2023-05-29T16:55:15;17.15;;;4.93;;
67065;SDS011;53978;43.846;25.952;2023-05-29T16:57:40;9.10;;;4.78;;
67065;SDS011;53978;43.846;25.952;2023-05-29T17:00:07;5.43;;;3.90;;
67065;SDS011;53978;43.846;25.952;2023-05-29T17:02:33;5.18;;;4.63;;
67065;SDS011;53978;43.846;25.952;2023-05-29T17:04:59;6.22;;;4.40;;
67065;SDS011;53978;43.846;25.952;2023-05-29T17:07:25;6.38;;;4.53;;
67065;SDS011;53978;43.846;25.952;2023-05-29T17:09:54;11.00;;;4.63;;
67065;SDS011;53978;43.846;25.952;2023-05-29T17:12:19;15.27;;;5.20;;
67065;SDS011;53978;43.846;25.952;2023-05-29T17:14:45;6.00;;;4.07;;
67065;SDS011;53978;43.846;25.952;2023-05-29T17:17:10;8.02;;;3.40;;
67065;SDS011;53978;43.846;25.952;2023-05-29T17:19:45;7.20;;;3.53;;
67065;SDS011;53978;43.846;25.952;2023-05-29T17:22:10;6.38;;;3.40;;
67065;SDS011;53978;43.846;25.952;2023-05-29T17:24:36;5.88;;;3.38;;
67065;SDS011;53978;43.846;25.952;2023-05-29T17:27:01;13.80;;;6.03;;
67065;SDS011;53978;43.846;25.952;2023-05-29T17:29:28;15.45;;;5.70;;
67065;SDS011;53978;43.846;25.952;2023-05-29T17:31:54;6.00;;;3.00;;
67065;SDS011;53978;43.846;25.952;2023-05-29T17:34:22;6.45;;;3.50;;
67065;SDS011;53978;43.846;25.952;2023-05-29T17:36:47;5.78;;;3.20;;
67065;SDS011;53978;43.846;25.952;2023-05-29T17:39:12;9.80;;;3.60;;
67065;SDS011;53978;43.846;25.952;2023-05-29T17:41:38;7.63;;;3.60;;
67065;SDS011;53978;43.846;25.952;2023-05-29T17:44:14;4.07;;;3.13;;
67065;SDS011;53978;43.846;25.952;2023-05-29T17:46:40;5.00;;;2.97;;
67065;SDS011;53978;43.846;25.952;2023-05-29T17:49:05;6.25;;;3.10;;
67065;SDS011;53978;43.846;25.952;2023-05-29T17:51:31;4.43;;;3.10;;
67065;SDS011;53978;43.846;25.952;2023-05-29T17:53:57;10.63;;;3.25;;
67065;SDS011;53978;43.846;25.952;2023-05-29T17:56:22;10.95;;;3.17;;
67065;SDS011;53978;43.846;25.952;2023-05-29T17:58:48;5.10;;;3.05;;
67065;SDS011;53978;43.846;25.952;2023-05-29T18:01:14;7.05;;;3.30;;
67065;SDS011;53978;43.846;25.952;2023-05-29T18:03:39;7.55;;;3.85;;
67065;SDS011;53978;43.846;25.952;2023-05-29T18:06:05;8.38;;;4.10;;
67065;SDS011;53978;43.846;25.952;2023-05-29T18:08:31;6.38;;;3.90;;
67065;SDS011;53978;43.846;25.952;2023-05-29T18:10:57;6.60;;;3.60;;
67065;SDS011;53978;43.846;25.952;2023-05-29T18:13:23;6.10;;;3.47;;
67065;SDS011;53978;43.846;25.952;2023-05-29T18:15:48;8.48;;;3.33;;
67065;SDS011;53978;43.846;25.952;2023-05-29T18:18:16;7.00;;;3.55;;
67065;SDS011;53978;43.846;25.952;2023-05-29T18:20:43;9.07;;;3.63;;
67065;SDS011;53978;43.846;25.952;2023-05-29T18:23:12;4.78;;;3.35;;
67065;SDS011;53978;43.846;25.952;2023-05-29T18:25:37;20.42;;;3.45;;
67065;SDS011;53978;43.846;25.952;2023-05-29T18:28:03;20.15;;;3.47;;
67065;SDS011;53978;43.846;25.952;2023-05-29T18:30:29;10.95;;;3.30;;
67065;SDS011;53978;43.846;25.952;2023-05-29T18:32:54;8.13;;;3.45;;
67065;SDS011;53978;43.846;25.952;2023-05-29T18:35:22;7.13;;;3.22;;
67065;SDS011;53978;43.846;25.952;2023-05-29T18:37:48;5.40;;;3.67;;
67065;SDS011;53978;43.846;25.952;2023-05-29T18:40:13;5.22;;;3.22;;
67065;SDS011;53978;43.846;25.952;2023-05-29T18:42:39;3.53;;;3.15;;
67065;SDS011;53978;43.846;25.952;2023-05-29T18:45:08;11.63;;;3.40;;
67065;SDS011;53978;43.846;25.952;2023-05-29T18:47:33;7.22;;;3.47;;
67065;SDS011;53978;43.846;25.952;2023-05-29T18:49:59;7.22;;;3.40;;
67065;SDS011;53978;43.846;25.952;2023-05-29T18:52:24;11.95;;;3.63;;
67065;SDS011;53978;43.846;25.952;2023-05-29T18:54:50;9.07;;;3.38;;
67065;SDS011;53978;43.846;25.952;2023-05-29T18:57:16;6.68;;;3.72;;
67065;SDS011;53978;43.846;25.952;2023-05-29T18:59:41;9.05;;;3.60;;
67065;SDS011;53978;43.846;25.952;2023-05-29T19:02:07;5.43;;;3.28;;
67065;SDS011;53978;43.846;25.952;2023-05-29T19:04:32;5.03;;;3.67;;
67065;SDS011;53978;43.846;25.952;2023-05-29T19:06:57;7.60;;;3.90;;
67065;SDS011;53978;43.846;25.952;2023-05-29T19:09:23;8.00;;;4.50;;
67065;SDS011;53978;43.846;25.952;2023-05-29T19:11:49;6.88;;;5.15;;
67065;SDS011;53978;43.846;25.952;2023-05-29T19:14:15;11.63;;;5.13;;
67065;SDS011;53978;43.846;25.952;2023-05-29T19:16:41;12.23;;;5.80;;
67065;SDS011;53978;43.846;25.952;2023-05-29T19:19:07;7.20;;;4.30;;
67065;SDS011;53978;43.846;25.952;2023-05-29T19:21:32;9.43;;;4.10;;
67065;SDS011;53978;43.846;25.952;2023-05-29T19:23:58;6.38;;;3.75;;
67065;SDS011;53978;43.846;25.952;2023-05-29T19:26:23;10.27;;;3.70;;
67065;SDS011;53978;43.846;25.952;2023-05-29T19:28:50;4.57;;;3.80;;
67065;SDS011;53978;43.846;25.952;2023-05-29T19:31:16;4.47;;;3.65;;
67065;SDS011;53978;43.846;25.952;2023-05-29T19:33:44;4.85;;;3.88;;
67065;SDS011;53978;43.846;25.952;2023-05-29T19:36:10;6.03;;;3.70;;
67065;SDS011;53978;43.846;25.952;2023-05-29T19:38:36;8.50;;;3.75;;
67065;SDS011;53978;43.846;25.952;2023-05-29T19:41:01;4.95;;;3.58;;
67065;SDS011;53978;43.846;25.952;2023-05-29T19:43:27;4.65;;;3.80;;
67065;SDS011;53978;43.846;25.952;2023-05-29T19:45:57;4.68;;;3.78;;
67065;SDS011;53978;43.846;25.952;2023-05-29T19:48:22;5.72;;;3.42;;
67065;SDS011;53978;43.846;25.952;2023-05-29T19:50:50;5.95;;;3.50;;
67065;SDS011;53978;43.846;25.952;2023-05-29T19:53:15;4.30;;;3.53;;
67065;SDS011;53978;43.846;25.952;2023-05-29T19:55:41;7.57;;;3.50;;
67065;SDS011;53978;43.846;25.952;2023-05-29T19:58:06;4.57;;;3.53;;
67065;SDS011;53978;43.846;25.952;2023-05-29T20:00:31;7.22;;;4.07;;
67065;SDS011;53978;43.846;25.952;2023-05-29T20:02:57;9.10;;;4.05;;
67065;SDS011;53978;43.846;25.952;2023-05-29T20:05:23;5.55;;;3.97;;
67065;SDS011;53978;43.846;25.952;2023-05-29T20:07:48;6.30;;;3.95;;
67065;SDS011;53978;43.846;25.952;2023-05-29T20:10:14;9.77;;;4.28;;
67065;SDS011;53978;43.846;25.952;2023-05-29T20:12:39;6.60;;;4.35;;
67065;SDS011;53978;43.846;25.952;2023-05-29T20:15:05;7.40;;;3.80;;
67065;SDS011;53978;43.846;25.952;2023-05-29T20:17:31;7.47;;;3.78;;
67065;SDS011;53978;43.846;25.952;2023-05-29T20:19:57;5.88;;;4.03;;
67065;SDS011;53978;43.846;25.952;2023-05-29T20:22:23;7.93;;;3.90;;
67065;SDS011;53978;43.846;25.952;2023-05-29T20:24:49;7.38;;;4.15;;
67065;SDS011;53978;43.846;25.952;2023-05-29T20:27:14;5.28;;;4.28;;
67065;SDS011;53978;43.846;25.952;2023-05-29T20:29:40;6.70;;;3.97;;
67065;SDS011;53978;43.846;25.952;2023-05-29T20:32:06;4.82;;;4.00;;
67065;SDS011;53978;43.846;25.952;2023-05-29T20:34:31;4.57;;;4.03;;
67065;SDS011;53978;43.846;25.952;2023-05-29T20:36:57;6.72;;;4.32;;
67065;SDS011;53978;43.846;25.952;2023-05-29T20:39:22;6.15;;;4.53;;
67065;SDS011;53978;43.846;25.952;2023-05-29T20:41:52;7.57;;;4.30;;
67065;SDS011;53978;43.846;25.952;2023-05-29T20:44:19;7.82;;;4.15;;
67065;SDS011;53978;43.846;25.952;2023-05-29T20:46:45;6.75;;;4.43;;
67065;SDS011;53978;43.846;25.952;2023-05-29T20:49:11;4.38;;;3.92;;
67065;SDS011;53978;43.846;25.952;2023-05-29T20:51:39;5.85;;;4.20;;
67065;SDS011;53978;43.846;25.952;2023-05-29T20:54:07;6.78;;;4.18;;
67065;SDS011;53978;43.846;25.952;2023-05-29T20:56:35;8.25;;;4.80;;
67065;SDS011;53978;43.846;25.952;2023-05-29T20:59:01;8.43;;;4.50;;
67065;SDS011;53978;43.846;25.952;2023-05-29T21:01:26;8.00;;;4.75;;
67065;SDS011;53978;43.846;25.952;2023-05-29T21:03:52;7.97;;;4.90;;
67065;SDS011;53978;43.846;25.952;2023-05-29T21:06:17;6.30;;;4.90;;
67065;SDS011;53978;43.846;25.952;2023-05-29T21:08:43;6.80;;;4.93;;
67065;SDS011;53978;43.846;25.952;2023-05-29T21:11:11;8.55;;;4.78;;
67065;SDS011;53978;43.846;25.952;2023-05-29T21:13:39;6.65;;;5.00;;
67065;SDS011;53978;43.846;25.952;2023-05-29T21:16:05;5.35;;;4.82;;
67065;SDS011;53978;43.846;25.952;2023-05-29T21:18:30;5.72;;;4.93;;
67065;SDS011;53978;43.846;25.952;2023-05-29T21:20:55;6.57;;;4.88;;
67065;SDS011;53978;43.846;25.952;2023-05-29T21:23:21;8.98;;;4.50;;
67065;SDS011;53978;43.846;25.952;2023-05-29T21:25:46;7.82;;;4.68;;
67065;SDS011;53978;43.846;25.952;2023-05-29T21:28:12;5.32;;;4.47;;
67065;SDS011;53978;43.846;25.952;2023-05-29T21:30:37;7.20;;;4.55;;
67065;SDS011;53978;43.846;25.952;2023-05-29T21:33:03;6.28;;;4.05;;
67065;SDS011;53978;43.846;25.952;2023-05-29T21:35:32;7.07;;;4.18;;
67065;SDS011;53978;43.846;25.952;2023-05-29T21:37:57;5.55;;;4.28;;
67065;SDS011;53978;43.846;25.952;2023-05-29T21:40:23;7.93;;;4.20;;
67065;SDS011;53978;43.846;25.952;2023-05-29T21:42:48;8.68;;;4.10;;
67065;SDS011;53978;43.846;25.952;2023-05-29T21:45:15;10.13;;;4.43;;
67065;SDS011;53978;43.846;25.952;2023-05-29T21:47:41;5.50;;;4.07;;
67065;SDS011;53978;43.846;25.952;2023-05-29T21:50:07;5.40;;;4.15;;
67065;SDS011;53978;43.846;25.952;2023-05-29T21:52:35;5.72;;;4.45;;
67065;SDS011;53978;43.846;25.952;2023-05-29T21:55:00;7.32;;;4.13;;
67065;SDS011;53978;43.846;25.952;2023-05-29T21:57:26;7.55;;;4.78;;
67065;SDS011;53978;43.846;25.952;2023-05-29T21:59:51;7.13;;;4.55;;
67065;SDS011;53978;43.846;25.952;2023-05-29T22:02:17;5.20;;;4.53;;
67065;SDS011;53978;43.846;25.952;2023-05-29T22:04:42;5.38;;;4.28;;
67065;SDS011;53978;43.846;25.952;2023-05-29T22:07:08;6.80;;;4.45;;
67065;SDS011;53978;43.846;25.952;2023-05-29T22:09:33;6.40;;;4.22;;
67065;SDS011;53978;43.846;25.952;2023-05-29T22:12:00;8.07;;;4.28;;
67065;SDS011;53978;43.846;25.952;2023-05-29T22:14:26;5.90;;;4.22;;
67065;SDS011;53978;43.846;25.952;2023-05-29T22:16:51;5.93;;;4.30;;
67065;SDS011;53978;43.846;25.952;2023-05-29T22:19:18;4.68;;;4.18;;
67065;SDS011;53978;43.846;25.952;2023-05-29T22:21:44;8.88;;;4.75;;
67065;SDS011;53978;43.846;25.952;2023-05-29T22:24:10;8.43;;;4.75;;
67065;SDS011;53978;43.846;25.952;2023-05-29T22:26:36;6.45;;;4.43;;
67065;SDS011;53978;43.846;25.952;2023-05-29T22:29:02;6.57;;;4.50;;
67065;SDS011;53978;43.846;25.952;2023-05-29T22:31:29;6.93;;;4.30;;
67065;SDS011;53978;43.846;25.952;2023-05-29T22:33:54;8.25;;;4.65;;
67065;SDS011;53978;43.846;25.952;2023-05-29T22:36:22;6.05;;;4.70;;
67065;SDS011;53978;43.846;25.952;2023-05-29T22:38:47;6.78;;;4.57;;
67065;SDS011;53978;43.846;25.952;2023-05-29T22:41:13;9.05;;;4.80;;
67065;SDS011;53978;43.846;25.952;2023-05-29T22:43:41;8.90;;;5.30;;
67065;SDS011;53978;43.846;25.952;2023-05-29T22:46:07;6.45;;;4.57;;
67065;SDS011;53978;43.846;25.952;2023-05-29T22:48:33;6.45;;;4.93;;
67065;SDS011;53978;43.846;25.952;2023-05-29T22:50:58;6.53;;;4.55;;
67065;SDS011;53978;43.846;25.952;2023-05-29T22:53:24;7.22;;;4.72;;
67065;SDS011;53978;43.846;25.952;2023-05-29T22:55:53;5.38;;;4.88;;
67065;SDS011;53978;43.846;25.952;2023-05-29T22:58:18;8.05;;;5.03;;
67065;SDS011;53978;43.846;25.952;2023-05-29T23:00:44;7.25;;;5.05;;
67065;SDS011;53978;43.846;25.952;2023-05-29T23:03:10;8.82;;;4.88;;
67065;SDS011;53978;43.846;25.952;2023-05-29T23:05:38;8.77;;;4.97;;
67065;SDS011;53978;43.846;25.952;2023-05-29T23:08:04;8.90;;;4.88;;
67065;SDS011;53978;43.846;25.952;2023-05-29T23:10:30;5.63;;;4.63;;
67065;SDS011;53978;43.846;25.952;2023-05-29T23:12:56;10.40;;;5.32;;
67065;SDS011;53978;43.846;25.952;2023-05-29T23:15:22;11.55;;;4.95;;
67065;SDS011;53978;43.846;25.952;2023-05-29T23:17:47;10.68;;;4.78;;
67065;SDS011;53978;43.846;25.952;2023-05-29T23:20:13;7.65;;;5.28;;
67065;SDS011;53978;43.846;25.952;2023-05-29T23:22:39;7.45;;;5.03;;
67065;SDS011;53978;43.846;25.952;2023-05-29T23:25:05;6.43;;;5.18;;
67065;SDS011;53978;43.846;25.952;2023-05-29T23:27:34;5.65;;;4.93;;
67065;SDS011;53978;43.846;25.952;2023-05-29T23:30:00;7.55;;;5.15;;
67065;SDS011;53978;43.846;25.952;2023-05-29T23:32:25;9.57;;;5.18;;
67065;SDS011;53978;43.846;25.952;2023-05-29T23:34:51;8.40;;;5.03;;
67065;SDS011;53978;43.846;25.952;2023-05-29T23:37:17;6.78;;;4.60;;
67065;SDS011;53978;43.846;25.952;2023-05-29T23:39:43;8.20;;;4.97;;
67065;SDS011;53978;43.846;25.952;2023-05-29T23:42:08;14.48;;;4.97;;
67065;SDS011;53978;43.846;25.952;2023-05-29T23:44:36;11.43;;;5.40;;
67065;SDS011;53978;43.846;25.952;2023-05-29T23:47:02;6.18;;;4.47;;
67065;SDS011;53978;43.846;25.952;2023-05-29T23:49:27;14.13;;;5.03;;
67065;SDS011;53978;43.846;25.952;2023-05-29T23:51:53;9.35;;;4.75;;
67065;SDS011;53978;43.846;25.952;2023-05-29T23:54:20;7.35;;;4.90;;
67065;SDS011;53978;43.846;25.952;2023-05-29T23:56:45;11.35;;;4.97;;
67065;SDS011;53978;43.846;25.952;2023-05-29T23:59:11;18.17;;;5.40;;
